sensor_id;sensor_type;location;lat;lon;timestamp;P1;durP1;ratioP1;P2;durP2;ratioP2
43580;SDS011;29175;51.030;4.606;2022-11-09T00:00:47;6.68;;;2.33;;
43580;SDS011;29175;51.030;4.606;2022-11-09T00:03:13;9.48;;;3.15;;
43580;SDS011;29175;51.030;4.606;2022-11-09T00:05:40;9.40;;;2.95;;
43580;SDS011;29175;51.030;4.606;2022-11-09T00:08:07;14.30;;;2.83;;
43580;SDS011;29175;51.030;4.606;2022-11-09T00:10:34;9.35;;;2.78;;
43580;SDS011;29175;51.030;4.606;2022-11-09T00:13:00;9.48;;;2.50;;
43580;SDS011;29175;51.030;4.606;2022-11-09T00:15:26;12.23;;;2.80;;
43580;SDS011;29175;51.030;4.606;2022-11-09T00:17:52;7.65;;;2.58;;
43580;SDS011;29175;51.030;4.606;2022-11-09T00:20:18;9.65;;;2.28;;
43580;SDS011;29175;51.030;4.606;2022-11-09T00:22:47;11.30;;;2.10;;
43580;SDS011;29175;51.030;4.606;2022-11-09T00:25:13;9.65;;;2.38;;
43580;SDS011;29175;51.030;4.606;2022-11-09T00:27:39;11.57;;;2.58;;
43580;SDS011;29175;51.030;4.606;2022-11-09T00:30:06;8.10;;;2.40;;
43580;SDS011;29175;51.030;4.606;2022-11-09T00:32:34;10.60;;;2.50;;
43580;SDS011;29175;51.030;4.606;2022-11-09T00:35:00;10.05;;;2.38;;
43580;SDS011;29175;51.030;4.606;2022-11-09T00:37:28;9.18;;;2.40;;
43580;SDS011;29175;51.030;4.606;2022-11-09T00:39:54;12.02;;;2.58;;
43580;SDS011;29175;51.030;4.606;2022-11-09T00:42:20;6.03;;;2.25;;
43580;SDS011;29175;51.030;4.606;2022-11-09T00:44:46;6.05;;;2.97;;
43580;SDS011;29175;51.030;4.606;2022-11-09T00:47:12;15.27;;;2.72;;
43580;SDS011;29175;51.030;4.606;2022-11-09T00:49:37;7.20;;;2.38;;
43580;SDS011;29175;51.030;4.606;2022-11-09T00:52:03;11.65;;;2.75;;
43580;SDS011;29175;51.030;4.606;2022-11-09T00:54:29;6.75;;;2.13;;
43580;SDS011;29175;51.030;4.606;2022-11-09T00:56:55;9.07;;;2.50;;
43580;SDS011;29175;51.030;4.606;2022-11-09T00:59:20;5.90;;;2.05;;
43580;SDS011;29175;51.030;4.606;2022-11-09T01:01:46;8.32;;;2.50;;
43580;SDS011;29175;51.030;4.606;2022-11-09T01:04:12;12.27;;;2.50;;
43580;SDS011;29175;51.030;4.606;2022-11-09T01:06:38;7.63;;;2.50;;
43580;SDS011;29175;51.030;4.606;2022-11-09T01:09:04;13.38;;;2.67;;
43580;SDS011;29175;51.030;4.606;2022-11-09T01:11:30;7.78;;;2.50;;
43580;SDS011;29175;51.030;4.606;2022-11-09T01:13:57;14.07;;;2.80;;
43580;SDS011;29175;51.030;4.606;2022-11-09T01:16:24;7.45;;;2.30;;
43580;SDS011;29175;51.030;4.606;2022-11-09T01:18:53;8.38;;;2.47;;
43580;SDS011;29175;51.030;4.606;2022-11-09T01:21:21;7.07;;;2.30;;
43580;SDS011;29175;51.030;4.606;2022-11-09T01:23:48;12.75;;;2.92;;
43580;SDS011;29175;51.030;4.606;2022-11-09T01:26:14;13.43;;;3.05;;
43580;SDS011;29175;51.030;4.606;2022-11-09T01:28:41;12.98;;;2.90;;
43580;SDS011;29175;51.030;4.606;2022-11-09T01:31:09;11.68;;;2.92;;
43580;SDS011;29175;51.030;4.606;2022-11-09T01:33:36;8.88;;;2.88;;
43580;SDS011;29175;51.030;4.606;2022-11-09T01:36:04;13.30;;;3.03;;
43580;SDS011;29175;51.030;4.606;2022-11-09T01:38:31;8.07;;;2.38;;
43580;SDS011;29175;51.030;4.606;2022-11-09T01:40:57;10.70;;;3.00;;
43580;SDS011;29175;51.030;4.606;2022-11-09T01:43:23;11.85;;;2.60;;
43580;SDS011;29175;51.030;4.606;2022-11-09T01:48:31;17.08;;;2.80;;
43580;SDS011;29175;51.030;4.606;2022-11-09T01:50:58;13.07;;;2.50;;
43580;SDS011;29175;51.030;4.606;2022-11-09T01:53:33;8.60;;;2.50;;
43580;SDS011;29175;51.030;4.606;2022-11-09T01:56:04;8.95;;;2.83;;
43580;SDS011;29175;51.030;4.606;2022-11-09T01:58:35;10.07;;;2.65;;
43580;SDS011;29175;51.030;4.606;2022-11-09T02:01:06;12.88;;;2.75;;
43580;SDS011;29175;51.030;4.606;2022-11-09T02:03:37;14.00;;;3.15;;
43580;SDS011;29175;51.030;4.606;2022-11-09T02:06:11;13.25;;;3.78;;
43580;SDS011;29175;51.030;4.606;2022-11-09T02:08:38;13.63;;;3.70;;
43580;SDS011;29175;51.030;4.606;2022-11-09T02:11:06;13.95;;;3.22;;
43580;SDS011;29175;51.030;4.606;2022-11-09T02:13:36;11.17;;;3.27;;
43580;SDS011;29175;51.030;4.606;2022-11-09T02:16:04;24.75;;;3.50;;
43580;SDS011;29175;51.030;4.606;2022-11-09T02:18:30;14.90;;;3.38;;
43580;SDS011;29175;51.030;4.606;2022-11-09T02:20:57;18.33;;;3.55;;
43580;SDS011;29175;51.030;4.606;2022-11-09T02:23:24;17.10;;;3.50;;
43580;SDS011;29175;51.030;4.606;2022-11-09T02:25:52;13.10;;;3.03;;
43580;SDS011;29175;51.030;4.606;2022-11-09T02:28:23;9.27;;;3.05;;
43580;SDS011;29175;51.030;4.606;2022-11-09T02:30:51;19.85;;;3.45;;
43580;SDS011;29175;51.030;4.606;2022-11-09T02:33:19;12.00;;;3.65;;
43580;SDS011;29175;51.030;4.606;2022-11-09T02:35:45;16.05;;;3.63;;
43580;SDS011;29175;51.030;4.606;2022-11-09T02:38:11;9.15;;;3.60;;
43580;SDS011;29175;51.030;4.606;2022-11-09T02:40:39;12.48;;;3.28;;
43580;SDS011;29175;51.030;4.606;2022-11-09T02:43:09;18.30;;;4.00;;
43580;SDS011;29175;51.030;4.606;2022-11-09T02:45:36;20.27;;;3.65;;
43580;SDS011;29175;51.030;4.606;2022-11-09T02:48:02;10.27;;;3.30;;
43580;SDS011;29175;51.030;4.606;2022-11-09T02:50:28;16.73;;;3.42;;
43580;SDS011;29175;51.030;4.606;2022-11-09T02:52:56;12.27;;;3.10;;
43580;SDS011;29175;51.030;4.606;2022-11-09T02:55:25;8.07;;;3.05;;
43580;SDS011;29175;51.030;4.606;2022-11-09T02:57:51;16.60;;;2.95;;
43580;SDS011;29175;51.030;4.606;2022-11-09T03:00:19;10.88;;;3.30;;
43580;SDS011;29175;51.030;4.606;2022-11-09T03:02:46;14.48;;;2.75;;
43580;SDS011;29175;51.030;4.606;2022-11-09T03:05:15;19.63;;;3.42;;
43580;SDS011;29175;51.030;4.606;2022-11-09T03:07:40;17.05;;;3.38;;
43580;SDS011;29175;51.030;4.606;2022-11-09T03:10:06;10.45;;;3.45;;
43580;SDS011;29175;51.030;4.606;2022-11-09T03:12:33;15.20;;;3.45;;
43580;SDS011;29175;51.030;4.606;2022-11-09T03:15:01;16.60;;;3.33;;
43580;SDS011;29175;51.030;4.606;2022-11-09T03:17:28;13.90;;;3.53;;
43580;SDS011;29175;51.030;4.606;2022-11-09T03:19:56;13.02;;;3.70;;
43580;SDS011;29175;51.030;4.606;2022-11-09T03:22:24;14.30;;;3.90;;
43580;SDS011;29175;51.030;4.606;2022-11-09T03:24:51;15.52;;;3.60;;
43580;SDS011;29175;51.030;4.606;2022-11-09T03:27:16;18.02;;;3.97;;
43580;SDS011;29175;51.030;4.606;2022-11-09T03:29:43;17.17;;;4.10;;
43580;SDS011;29175;51.030;4.606;2022-11-09T03:32:09;10.05;;;2.95;;
43580;SDS011;29175;51.030;4.606;2022-11-09T03:34:35;18.25;;;3.83;;
43580;SDS011;29175;51.030;4.606;2022-11-09T03:37:01;16.20;;;3.40;;
43580;SDS011;29175;51.030;4.606;2022-11-09T03:39:28;19.50;;;3.58;;
43580;SDS011;29175;51.030;4.606;2022-11-09T03:41:56;9.50;;;3.38;;
43580;SDS011;29175;51.030;4.606;2022-11-09T03:44:22;14.57;;;4.00;;
43580;SDS011;29175;51.030;4.606;2022-11-09T03:46:48;14.52;;;3.10;;
43580;SDS011;29175;51.030;4.606;2022-11-09T03:49:17;12.98;;;3.47;;
43580;SDS011;29175;51.030;4.606;2022-11-09T03:51:44;12.65;;;3.25;;
43580;SDS011;29175;51.030;4.606;2022-11-09T03:54:12;18.10;;;3.20;;
43580;SDS011;29175;51.030;4.606;2022-11-09T03:56:38;14.15;;;3.42;;
43580;SDS011;29175;51.030;4.606;2022-11-09T03:59:04;18.83;;;4.32;;
43580;SDS011;29175;51.030;4.606;2022-11-09T04:01:30;16.70;;;3.47;;
43580;SDS011;29175;51.030;4.606;2022-11-09T04:03:57;17.27;;;3.47;;
43580;SDS011;29175;51.030;4.606;2022-11-09T04:06:23;18.20;;;3.53;;
43580;SDS011;29175;51.030;4.606;2022-11-09T04:08:49;14.23;;;3.30;;
43580;SDS011;29175;51.030;4.606;2022-11-09T04:11:15;11.32;;;3.22;;
43580;SDS011;29175;51.030;4.606;2022-11-09T04:13:41;13.98;;;3.05;;
43580;SDS011;29175;51.030;4.606;2022-11-09T04:16:10;15.93;;;3.33;;
43580;SDS011;29175;51.030;4.606;2022-11-09T04:18:36;15.60;;;3.05;;
43580;SDS011;29175;51.030;4.606;2022-11-09T04:21:04;13.13;;;3.28;;
43580;SDS011;29175;51.030;4.606;2022-11-09T04:23:31;22.63;;;3.95;;
43580;SDS011;29175;51.030;4.606;2022-11-09T04:28:26;14.70;;;3.20;;
43580;SDS011;29175;51.030;4.606;2022-11-09T04:30:53;11.00;;;2.88;;
43580;SDS011;29175;51.030;4.606;2022-11-09T04:33:21;11.77;;;2.83;;
43580;SDS011;29175;51.030;4.606;2022-11-09T04:35:46;14.45;;;3.30;;
43580;SDS011;29175;51.030;4.606;2022-11-09T04:38:13;13.88;;;3.30;;
43580;SDS011;29175;51.030;4.606;2022-11-09T04:40:39;16.00;;;3.45;;
43580;SDS011;29175;51.030;4.606;2022-11-09T04:43:05;13.18;;;3.40;;
43580;SDS011;29175;51.030;4.606;2022-11-09T04:45:36;11.15;;;3.28;;
43580;SDS011;29175;51.030;4.606;2022-11-09T04:48:03;15.27;;;3.60;;
43580;SDS011;29175;51.030;4.606;2022-11-09T04:50:31;17.30;;;3.97;;
43580;SDS011;29175;51.030;4.606;2022-11-09T04:53:07;20.52;;;3.30;;
43580;SDS011;29175;51.030;4.606;2022-11-09T04:55:37;13.57;;;3.65;;
43580;SDS011;29175;51.030;4.606;2022-11-09T04:58:04;12.75;;;3.13;;
43580;SDS011;29175;51.030;4.606;2022-11-09T05:00:31;13.48;;;3.30;;
43580;SDS011;29175;51.030;4.606;2022-11-09T05:02:59;16.15;;;3.17;;
43580;SDS011;29175;51.030;4.606;2022-11-09T05:07:59;16.90;;;2.85;;
43580;SDS011;29175;51.030;4.606;2022-11-09T05:10:27;12.88;;;3.58;;
43580;SDS011;29175;51.030;4.606;2022-11-09T05:13:05;16.70;;;3.22;;
43580;SDS011;29175;51.030;4.606;2022-11-09T05:15:33;12.50;;;3.30;;
43580;SDS011;29175;51.030;4.606;2022-11-09T05:17:59;14.10;;;3.30;;
43580;SDS011;29175;51.030;4.606;2022-11-09T05:20:29;20.02;;;3.22;;
43580;SDS011;29175;51.030;4.606;2022-11-09T05:22:59;12.00;;;3.38;;
43580;SDS011;29175;51.030;4.606;2022-11-09T05:25:44;17.38;;;3.42;;
43580;SDS011;29175;51.030;4.606;2022-11-09T05:28:13;11.48;;;3.15;;
43580;SDS011;29175;51.030;4.606;2022-11-09T05:30:41;19.30;;;3.97;;
43580;SDS011;29175;51.030;4.606;2022-11-09T05:33:08;11.88;;;2.97;;
43580;SDS011;29175;51.030;4.606;2022-11-09T05:35:33;9.25;;;3.08;;
43580;SDS011;29175;51.030;4.606;2022-11-09T05:38:01;11.73;;;3.03;;
43580;SDS011;29175;51.030;4.606;2022-11-09T05:40:30;12.38;;;3.40;;
43580;SDS011;29175;51.030;4.606;2022-11-09T05:42:57;18.73;;;3.08;;
43580;SDS011;29175;51.030;4.606;2022-11-09T05:45:23;15.80;;;3.92;;
43580;SDS011;29175;51.030;4.606;2022-11-09T05:47:49;14.82;;;3.05;;
43580;SDS011;29175;51.030;4.606;2022-11-09T05:50:15;10.45;;;3.30;;
43580;SDS011;29175;51.030;4.606;2022-11-09T05:52:41;25.05;;;3.30;;
43580;SDS011;29175;51.030;4.606;2022-11-09T05:55:07;16.98;;;3.90;;
43580;SDS011;29175;51.030;4.606;2022-11-09T05:57:33;10.15;;;2.88;;
43580;SDS011;29175;51.030;4.606;2022-11-09T05:59:58;16.38;;;3.67;;
43580;SDS011;29175;51.030;4.606;2022-11-09T06:02:24;13.07;;;3.40;;
43580;SDS011;29175;51.030;4.606;2022-11-09T06:04:50;17.90;;;3.38;;
43580;SDS011;29175;51.030;4.606;2022-11-09T06:07:15;12.40;;;3.15;;
43580;SDS011;29175;51.030;4.606;2022-11-09T06:09:41;19.50;;;3.25;;
43580;SDS011;29175;51.030;4.606;2022-11-09T06:12:07;7.25;;;2.63;;
43580;SDS011;29175;51.030;4.606;2022-11-09T06:14:32;20.35;;;3.40;;
43580;SDS011;29175;51.030;4.606;2022-11-09T06:16:58;15.68;;;3.17;;
43580;SDS011;29175;51.030;4.606;2022-11-09T06:19:24;12.38;;;3.63;;
43580;SDS011;29175;51.030;4.606;2022-11-09T06:21:50;14.88;;;2.88;;
43580;SDS011;29175;51.030;4.606;2022-11-09T06:24:15;14.88;;;3.33;;
43580;SDS011;29175;51.030;4.606;2022-11-09T06:26:41;13.43;;;3.15;;
43580;SDS011;29175;51.030;4.606;2022-11-09T06:29:07;18.10;;;3.35;;
43580;SDS011;29175;51.030;4.606;2022-11-09T06:31:35;15.65;;;3.40;;
43580;SDS011;29175;51.030;4.606;2022-11-09T06:34:00;25.70;;;3.78;;
43580;SDS011;29175;51.030;4.606;2022-11-09T06:36:27;16.77;;;3.47;;
43580;SDS011;29175;51.030;4.606;2022-11-09T06:38:53;12.45;;;3.42;;
43580;SDS011;29175;51.030;4.606;2022-11-09T06:41:19;13.73;;;3.60;;
43580;SDS011;29175;51.030;4.606;2022-11-09T06:43:45;10.60;;;3.30;;
43580;SDS011;29175;51.030;4.606;2022-11-09T06:46:10;13.98;;;3.38;;
43580;SDS011;29175;51.030;4.606;2022-11-09T06:48:37;7.70;;;3.47;;
43580;SDS011;29175;51.030;4.606;2022-11-09T06:51:05;10.90;;;2.90;;
43580;SDS011;29175;51.030;4.606;2022-11-09T06:53:31;16.95;;;3.80;;
43580;SDS011;29175;51.030;4.606;2022-11-09T06:56:02;17.55;;;3.70;;
43580;SDS011;29175;51.030;4.606;2022-11-09T06:58:29;12.13;;;3.58;;
43580;SDS011;29175;51.030;4.606;2022-11-09T07:00:55;18.13;;;4.03;;
43580;SDS011;29175;51.030;4.606;2022-11-09T07:03:22;10.73;;;3.22;;
43580;SDS011;29175;51.030;4.606;2022-11-09T07:05:48;14.38;;;3.13;;
43580;SDS011;29175;51.030;4.606;2022-11-09T07:08:15;12.15;;;3.20;;
43580;SDS011;29175;51.030;4.606;2022-11-09T07:10:47;14.38;;;3.60;;
43580;SDS011;29175;51.030;4.606;2022-11-09T07:13:19;13.23;;;4.13;;
43580;SDS011;29175;51.030;4.606;2022-11-09T07:15:51;12.00;;;3.20;;
43580;SDS011;29175;51.030;4.606;2022-11-09T07:18:18;13.55;;;3.30;;
43580;SDS011;29175;51.030;4.606;2022-11-09T07:20:45;10.35;;;3.80;;
43580;SDS011;29175;51.030;4.606;2022-11-09T07:23:14;11.68;;;3.53;;
43580;SDS011;29175;51.030;4.606;2022-11-09T07:25:41;11.93;;;4.15;;
43580;SDS011;29175;51.030;4.606;2022-11-09T07:28:08;17.73;;;4.18;;
43580;SDS011;29175;51.030;4.606;2022-11-09T07:30:36;15.02;;;3.60;;
43580;SDS011;29175;51.030;4.606;2022-11-09T07:33:08;13.45;;;3.80;;
43580;SDS011;29175;51.030;4.606;2022-11-09T07:35:37;10.98;;;3.10;;
43580;SDS011;29175;51.030;4.606;2022-11-09T07:41:25;18.90;;;3.80;;
43580;SDS011;29175;51.030;4.606;2022-11-09T07:43:51;9.10;;;3.30;;
43580;SDS011;29175;51.030;4.606;2022-11-09T07:46:17;15.70;;;3.60;;
43580;SDS011;29175;51.030;4.606;2022-11-09T07:48:44;15.30;;;3.45;;
43580;SDS011;29175;51.030;4.606;2022-11-09T07:51:11;19.77;;;3.42;;
43580;SDS011;29175;51.030;4.606;2022-11-09T07:53:38;12.60;;;3.00;;
43580;SDS011;29175;51.030;4.606;2022-11-09T07:56:04;10.57;;;2.65;;
43580;SDS011;29175;51.030;4.606;2022-11-09T07:58:40;12.52;;;3.35;;
43580;SDS011;29175;51.030;4.606;2022-11-09T08:01:10;12.23;;;3.20;;
43580;SDS011;29175;51.030;4.606;2022-11-09T08:03:36;23.50;;;4.70;;
43580;SDS011;29175;51.030;4.606;2022-11-09T08:06:02;14.77;;;3.80;;
43580;SDS011;29175;51.030;4.606;2022-11-09T08:08:27;11.23;;;3.08;;
43580;SDS011;29175;51.030;4.606;2022-11-09T08:10:55;16.73;;;3.63;;
43580;SDS011;29175;51.030;4.606;2022-11-09T08:13:24;17.33;;;4.20;;
43580;SDS011;29175;51.030;4.606;2022-11-09T08:15:50;17.45;;;3.70;;
43580;SDS011;29175;51.030;4.606;2022-11-09T08:18:17;19.25;;;3.70;;
43580;SDS011;29175;51.030;4.606;2022-11-09T08:20:43;12.55;;;3.45;;
43580;SDS011;29175;51.030;4.606;2022-11-09T08:23:13;12.35;;;3.70;;
43580;SDS011;29175;51.030;4.606;2022-11-09T08:25:40;14.93;;;3.65;;
43580;SDS011;29175;51.030;4.606;2022-11-09T08:28:07;19.20;;;3.40;;
43580;SDS011;29175;51.030;4.606;2022-11-09T08:30:34;14.77;;;3.28;;
43580;SDS011;29175;51.030;4.606;2022-11-09T08:33:01;14.25;;;3.58;;
43580;SDS011;29175;51.030;4.606;2022-11-09T08:35:30;21.08;;;4.00;;
43580;SDS011;29175;51.030;4.606;2022-11-09T08:37:58;9.00;;;2.78;;
43580;SDS011;29175;51.030;4.606;2022-11-09T08:45:33;9.90;;;3.20;;
43580;SDS011;29175;51.030;4.606;2022-11-09T08:50:29;17.67;;;3.40;;
43580;SDS011;29175;51.030;4.606;2022-11-09T08:55:24;15.85;;;4.78;;
43580;SDS011;29175;51.030;4.606;2022-11-09T08:57:54;8.43;;;3.80;;
43580;SDS011;29175;51.030;4.606;2022-11-09T09:00:23;10.50;;;3.05;;
43580;SDS011;29175;51.030;4.606;2022-11-09T09:02:50;15.65;;;3.35;;
43580;SDS011;29175;51.030;4.606;2022-11-09T09:05:18;12.63;;;3.25;;
43580;SDS011;29175;51.030;4.606;2022-11-09T09:07:46;13.73;;;2.80;;
43580;SDS011;29175;51.030;4.606;2022-11-09T09:10:12;13.77;;;2.97;;
43580;SDS011;29175;51.030;4.606;2022-11-09T09:15:25;13.65;;;2.70;;
43580;SDS011;29175;51.030;4.606;2022-11-09T09:17:51;11.75;;;2.85;;
43580;SDS011;29175;51.030;4.606;2022-11-09T09:20:17;15.20;;;3.38;;
43580;SDS011;29175;51.030;4.606;2022-11-09T09:22:43;14.13;;;2.80;;
43580;SDS011;29175;51.030;4.606;2022-11-09T09:25:10;16.95;;;3.10;;
43580;SDS011;29175;51.030;4.606;2022-11-09T09:27:36;12.88;;;2.63;;
43580;SDS011;29175;51.030;4.606;2022-11-09T09:30:02;8.10;;;2.55;;
43580;SDS011;29175;51.030;4.606;2022-11-09T09:32:29;16.42;;;3.00;;
43580;SDS011;29175;51.030;4.606;2022-11-09T09:34:55;13.57;;;3.38;;
43580;SDS011;29175;51.030;4.606;2022-11-09T09:37:21;17.15;;;2.90;;
43580;SDS011;29175;51.030;4.606;2022-11-09T09:39:46;10.00;;;2.60;;
43580;SDS011;29175;51.030;4.606;2022-11-09T09:42:16;12.65;;;3.58;;
43580;SDS011;29175;51.030;4.606;2022-11-09T09:44:50;11.00;;;2.90;;
43580;SDS011;29175;51.030;4.606;2022-11-09T09:50:02;16.30;;;2.95;;
43580;SDS011;29175;51.030;4.606;2022-11-09T09:53:36;12.15;;;3.28;;
43580;SDS011;29175;51.030;4.606;2022-11-09T09:55:49;14.60;;;2.97;;
43580;SDS011;29175;51.030;4.606;2022-11-09T09:58:28;14.55;;;3.35;;
43580;SDS011;29175;51.030;4.606;2022-11-09T10:03:48;10.05;;;2.83;;
43580;SDS011;29175;51.030;4.606;2022-11-09T10:08:53;11.55;;;3.28;;
43580;SDS011;29175;51.030;4.606;2022-11-09T10:14:25;16.30;;;3.40;;
43580;SDS011;29175;51.030;4.606;2022-11-09T10:23:24;15.07;;;3.08;;
43580;SDS011;29175;51.030;4.606;2022-11-09T10:25:27;16.80;;;2.97;;
43580;SDS011;29175;51.030;4.606;2022-11-09T10:27:58;13.85;;;3.13;;
43580;SDS011;29175;51.030;4.606;2022-11-09T10:30:27;17.17;;;2.47;;
43580;SDS011;29175;51.030;4.606;2022-11-09T10:32:55;10.73;;;2.65;;
43580;SDS011;29175;51.030;4.606;2022-11-09T10:35:33;11.35;;;2.58;;
43580;SDS011;29175;51.030;4.606;2022-11-09T10:38:09;14.20;;;2.58;;
43580;SDS011;29175;51.030;4.606;2022-11-09T10:40:55;11.55;;;2.80;;
43580;SDS011;29175;51.030;4.606;2022-11-09T10:43:42;14.40;;;2.80;;
43580;SDS011;29175;51.030;4.606;2022-11-09T10:46:08;8.75;;;2.65;;
43580;SDS011;29175;51.030;4.606;2022-11-09T10:48:34;11.13;;;2.78;;
43580;SDS011;29175;51.030;4.606;2022-11-09T10:51:02;14.73;;;3.00;;
43580;SDS011;29175;51.030;4.606;2022-11-09T10:53:31;13.88;;;2.83;;
43580;SDS011;29175;51.030;4.606;2022-11-09T10:58:37;13.38;;;2.95;;
43580;SDS011;29175;51.030;4.606;2022-11-09T11:01:20;14.75;;;3.45;;
43580;SDS011;29175;51.030;4.606;2022-11-09T11:03:49;10.70;;;2.70;;
43580;SDS011;29175;51.030;4.606;2022-11-09T11:08:46;16.45;;;3.13;;
43580;SDS011;29175;51.030;4.606;2022-11-09T11:11:32;12.48;;;3.00;;
43580;SDS011;29175;51.030;4.606;2022-11-09T11:16:47;10.65;;;2.55;;
43580;SDS011;29175;51.030;4.606;2022-11-09T11:24:53;17.00;;;2.92;;
43580;SDS011;29175;51.030;4.606;2022-11-09T11:30:12;13.38;;;2.75;;
43580;SDS011;29175;51.030;4.606;2022-11-09T11:32:43;9.00;;;2.60;;
43580;SDS011;29175;51.030;4.606;2022-11-09T11:40:28;12.15;;;3.22;;
43580;SDS011;29175;51.030;4.606;2022-11-09T11:46:05;17.42;;;3.15;;
43580;SDS011;29175;51.030;4.606;2022-11-09T11:51:12;11.57;;;3.33;;
43580;SDS011;29175;51.030;4.606;2022-11-09T11:54:00;10.65;;;3.05;;
43580;SDS011;29175;51.030;4.606;2022-11-09T11:56:30;9.18;;;2.63;;
43580;SDS011;29175;51.030;4.606;2022-11-09T12:09:20;14.27;;;2.53;;
43580;SDS011;29175;51.030;4.606;2022-11-09T12:12:00;9.10;;;2.25;;
43580;SDS011;29175;51.030;4.606;2022-11-09T12:15:03;7.47;;;2.70;;
43580;SDS011;29175;51.030;4.606;2022-11-09T12:18:08;9.43;;;2.70;;
43580;SDS011;29175;51.030;4.606;2022-11-09T12:26:08;13.50;;;3.00;;
43580;SDS011;29175;51.030;4.606;2022-11-09T12:34:26;7.93;;;2.67;;
43580;SDS011;29175;51.030;4.606;2022-11-09T12:37:11;11.50;;;2.70;;
43580;SDS011;29175;51.030;4.606;2022-11-09T12:39:47;16.58;;;2.53;;
43580;SDS011;29175;51.030;4.606;2022-11-09T12:45:33;5.63;;;2.17;;
43580;SDS011;29175;51.030;4.606;2022-11-09T12:50:53;7.35;;;2.20;;
43580;SDS011;29175;51.030;4.606;2022-11-09T12:53:20;6.68;;;2.10;;
43580;SDS011;29175;51.030;4.606;2022-11-09T12:58:21;10.63;;;2.45;;
43580;SDS011;29175;51.030;4.606;2022-11-09T13:01:09;10.13;;;2.03;;
43580;SDS011;29175;51.030;4.606;2022-11-09T13:03:54;6.10;;;1.60;;
43580;SDS011;29175;51.030;4.606;2022-11-09T13:11:38;5.47;;;2.05;;
43580;SDS011;29175;51.030;4.606;2022-11-09T13:16:48;8.32;;;2.30;;
43580;SDS011;29175;51.030;4.606;2022-11-09T13:21:59;9.73;;;2.58;;
43580;SDS011;29175;51.030;4.606;2022-11-09T13:26:56;4.75;;;2.10;;
43580;SDS011;29175;51.030;4.606;2022-11-09T13:29:27;9.23;;;2.55;;
43580;SDS011;29175;51.030;4.606;2022-11-09T13:34:50;10.95;;;2.50;;
43580;SDS011;29175;51.030;4.606;2022-11-09T13:47:58;13.68;;;5.20;;
43580;SDS011;29175;51.030;4.606;2022-11-09T13:50:25;11.57;;;3.17;;
43580;SDS011;29175;51.030;4.606;2022-11-09T13:52:54;11.98;;;2.60;;
43580;SDS011;29175;51.030;4.606;2022-11-09T13:55:34;12.60;;;3.17;;
43580;SDS011;29175;51.030;4.606;2022-11-09T13:58:17;11.05;;;2.90;;
43580;SDS011;29175;51.030;4.606;2022-11-09T14:00:49;14.77;;;2.83;;
43580;SDS011;29175;51.030;4.606;2022-11-09T14:03:16;11.48;;;3.25;;
43580;SDS011;29175;51.030;4.606;2022-11-09T14:05:51;11.35;;;2.70;;
43580;SDS011;29175;51.030;4.606;2022-11-09T14:08:26;9.20;;;2.40;;
43580;SDS011;29175;51.030;4.606;2022-11-09T14:13:30;13.05;;;2.67;;
43580;SDS011;29175;51.030;4.606;2022-11-09T14:16:26;15.20;;;2.85;;
43580;SDS011;29175;51.030;4.606;2022-11-09T14:22:32;10.90;;;3.00;;
43580;SDS011;29175;51.030;4.606;2022-11-09T14:25:03;10.05;;;3.00;;
43580;SDS011;29175;51.030;4.606;2022-11-09T14:27:53;12.10;;;2.67;;
43580;SDS011;29175;51.030;4.606;2022-11-09T14:30:24;9.30;;;2.20;;
43580;SDS011;29175;51.030;4.606;2022-11-09T14:32:54;10.10;;;2.75;;
43580;SDS011;29175;51.030;4.606;2022-11-09T14:37:47;9.80;;;2.28;;
43580;SDS011;29175;51.030;4.606;2022-11-09T14:40:19;8.63;;;2.53;;
43580;SDS011;29175;51.030;4.606;2022-11-09T14:42:55;7.78;;;1.98;;
43580;SDS011;29175;51.030;4.606;2022-11-09T14:45:24;10.55;;;3.00;;
43580;SDS011;29175;51.030;4.606;2022-11-09T14:47:52;18.17;;;3.15;;
43580;SDS011;29175;51.030;4.606;2022-11-09T14:52:56;11.27;;;2.30;;
43580;SDS011;29175;51.030;4.606;2022-11-09T14:55:24;6.20;;;2.35;;
43580;SDS011;29175;51.030;4.606;2022-11-09T14:57:50;12.15;;;2.75;;
43580;SDS011;29175;51.030;4.606;2022-11-09T15:00:22;10.98;;;3.38;;
43580;SDS011;29175;51.030;4.606;2022-11-09T15:02:49;24.02;;;2.75;;
43580;SDS011;29175;51.030;4.606;2022-11-09T15:07:53;15.82;;;5.60;;
43580;SDS011;29175;51.030;4.606;2022-11-09T15:10:19;15.20;;;3.53;;
43580;SDS011;29175;51.030;4.606;2022-11-09T15:12:50;9.43;;;3.38;;
43580;SDS011;29175;51.030;4.606;2022-11-09T15:15:20;10.57;;;3.00;;
43580;SDS011;29175;51.030;4.606;2022-11-09T15:17:48;10.77;;;3.13;;
43580;SDS011;29175;51.030;4.606;2022-11-09T15:30:39;15.40;;;2.97;;
43580;SDS011;29175;51.030;4.606;2022-11-09T15:35:59;10.05;;;3.15;;
43580;SDS011;29175;51.030;4.606;2022-11-09T15:38:43;9.02;;;2.30;;
43580;SDS011;29175;51.030;4.606;2022-11-09T15:41:19;14.32;;;3.20;;
43580;SDS011;29175;51.030;4.606;2022-11-09T15:43:46;10.57;;;2.50;;
43580;SDS011;29175;51.030;4.606;2022-11-09T15:46:16;11.45;;;3.80;;
43580;SDS011;29175;51.030;4.606;2022-11-09T15:48:58;9.68;;;3.25;;
43580;SDS011;29175;51.030;4.606;2022-11-09T15:51:31;11.43;;;3.03;;
43580;SDS011;29175;51.030;4.606;2022-11-09T15:53:56;9.23;;;2.63;;
43580;SDS011;29175;51.030;4.606;2022-11-09T15:56:22;11.60;;;3.20;;
43580;SDS011;29175;51.030;4.606;2022-11-09T15:58:50;11.07;;;2.78;;
43580;SDS011;29175;51.030;4.606;2022-11-09T16:01:17;10.02;;;2.88;;
43580;SDS011;29175;51.030;4.606;2022-11-09T16:03:43;7.72;;;2.33;;
43580;SDS011;29175;51.030;4.606;2022-11-09T16:06:09;11.48;;;2.88;;
43580;SDS011;29175;51.030;4.606;2022-11-09T16:08:38;8.13;;;2.78;;
43580;SDS011;29175;51.030;4.606;2022-11-09T16:11:04;11.80;;;3.08;;
43580;SDS011;29175;51.030;4.606;2022-11-09T16:13:32;10.45;;;2.80;;
43580;SDS011;29175;51.030;4.606;2022-11-09T16:16:02;9.82;;;3.28;;
43580;SDS011;29175;51.030;4.606;2022-11-09T16:18:29;16.38;;;3.20;;
43580;SDS011;29175;51.030;4.606;2022-11-09T16:20:54;13.25;;;3.10;;
43580;SDS011;29175;51.030;4.606;2022-11-09T16:23:21;14.23;;;3.45;;
43580;SDS011;29175;51.030;4.606;2022-11-09T16:25:47;12.52;;;3.10;;
43580;SDS011;29175;51.030;4.606;2022-11-09T16:28:12;14.13;;;3.42;;
43580;SDS011;29175;51.030;4.606;2022-11-09T16:30:39;11.48;;;3.22;;
43580;SDS011;29175;51.030;4.606;2022-11-09T16:33:05;11.82;;;4.72;;
43580;SDS011;29175;51.030;4.606;2022-11-09T16:35:32;13.85;;;4.72;;
43580;SDS011;29175;51.030;4.606;2022-11-09T16:37:58;15.93;;;4.38;;
43580;SDS011;29175;51.030;4.606;2022-11-09T16:40:27;11.45;;;4.95;;
43580;SDS011;29175;51.030;4.606;2022-11-09T16:42:55;9.95;;;3.88;;
43580;SDS011;29175;51.030;4.606;2022-11-09T16:45:23;12.98;;;4.18;;
43580;SDS011;29175;51.030;4.606;2022-11-09T16:47:51;14.82;;;4.93;;
43580;SDS011;29175;51.030;4.606;2022-11-09T16:50:21;14.85;;;4.00;;
43580;SDS011;29175;51.030;4.606;2022-11-09T16:52:47;13.02;;;3.95;;
43580;SDS011;29175;51.030;4.606;2022-11-09T16:55:13;10.32;;;3.80;;
43580;SDS011;29175;51.030;4.606;2022-11-09T16:57:39;20.08;;;4.72;;
43580;SDS011;29175;51.030;4.606;2022-11-09T17:00:05;22.42;;;4.72;;
43580;SDS011;29175;51.030;4.606;2022-11-09T17:02:32;12.55;;;4.10;;
43580;SDS011;29175;51.030;4.606;2022-11-09T17:04:58;17.65;;;4.00;;
43580;SDS011;29175;51.030;4.606;2022-11-09T17:07:24;12.10;;;4.22;;
43580;SDS011;29175;51.030;4.606;2022-11-09T17:09:50;15.90;;;4.03;;
43580;SDS011;29175;51.030;4.606;2022-11-09T17:12:16;11.23;;;3.83;;
43580;SDS011;29175;51.030;4.606;2022-11-09T17:14:43;15.68;;;3.75;;
43580;SDS011;29175;51.030;4.606;2022-11-09T17:17:09;15.70;;;4.05;;